Conant, Illinois
Current Conditions -  °F | °C
As of 1:15 AM on Sunday 23 Nov 2014 (Local Time) from KSAR Reporting Station
Clear Clear  
Wind Chill: 54°   Ceiling: Unl
Heat Index: 54°   Visibility: 10mi
Dew Point: 41°   Wind: 12mph
Humidity: 62%   Direction: 170°S
Pressure: 29.88"   Gusts: 18mph
Location:  38.0951°N, 89.3926°W
Report Text: KSAR 230715Z AUTO 17010G16KT 10SM CLR 12/05 A2988 RMK AO2 T01200048
Loading
Personal Weather Stations






























Interactive Weather Map New forecast layout! Learn more

10-Day Weather Forecast

Advertisements
Track Severe Weather on mobile